Cudahy, WI (53110)

8:58 PM CST on February 11, 2016 (GMT -0600)
E Layton | | Change Station
CLOSE
Current Station
Personal Weather Station
Location: Cudahy, WI
Elevation: 712 ft
Nearby Weather Stations

Elev 712 ft 42.96 °N, 87.86 °W | Updated 11 seconds ago

Partly Cloudy
Partly Cloudy
14.0 °F
Feels Like 14 °F
N
0.0
Wind Variable Wind from SW
Gusts 2.0 mph

Today
High -- | Low -- °F
--% Chance of Precip.
Yesterday
High -- | Low -- °F
Precip. -- in
Pressure 30.29 in
Visibility 10.0 miles
Clouds Few 25000 ft
Windchill 14 °F
Dew Point 4 °F
Humidity 64%
Rainfall 0.00 in
Snow Depth Not available.
6:54 AM 5:17 PM
Waxing Crescent, 16% visible
METAR KMKE 120252Z 23005KT 10SM FEW250 M09/M18 A3024 RMK AO2 SLP257 T10941178 58004
Pressure 30.29 in
Visibility 10.0 miles
Clouds Few 25000 ft
Windchill 14 °F
Dew Point 4 °F
Humidity 64%
Rainfall 0.00 in
Snow Depth Not available.
6:54 AM 5:17 PM
Waxing Crescent, 16% visible
METAR KMKE 120252Z 23005KT 10SM FEW250 M09/M18 A3024 RMK AO2 SLP257 T10941178 58004

10-Day Weather Forecast

Almanac

Astronomy

Feb. 11, 2016 Rise Set
Actual Time
Civil Twilight
Nautical Twilight
Astronomical Twilight
Moon
Length of Visible Light
Length of Day
Tomorrow will be .
, % of the Moon is Illuminated

Today's Extremes

State Highs State Lows

Community

WunderPhotos

Upload Photos

1,892,226 photos uploaded!

WunderBlog® & News

Nearby

Air Quality

  Air Quality AQ Index Pollutant
Not available.

Snow Depth

Station Depth Elevation

Earthquake Activity

City Distance Mag. Time & Date
Minimum magnitude displayed is 2.5.

Coastal Water Temperatures

Place Temperature

Stations

Nearby Weather Stations

Station Location Temp. Windchill Dew Point Humidity Wind Precip. Elev Updated Type
                   

Watches & Warnings

There are currently no watches in effect.